createdAt,value
2019-05-21T00:01:32.002Z,5.17
2019-05-21T00:03:59.344Z,16.50
2019-05-21T00:06:26.688Z,7.57
2019-05-21T00:08:54.016Z,7.23
2019-05-21T00:11:21.348Z,5.03
2019-05-21T00:13:48.998Z,6.50
2019-05-21T00:16:16.314Z,3.83
2019-05-21T00:18:43.716Z,5.47
2019-05-21T00:21:11.083Z,4.40
2019-05-21T00:23:38.419Z,4.67
2019-05-21T00:26:05.806Z,4.17
2019-05-21T00:28:34.828Z,7.23
2019-05-21T00:31:20.207Z,5.90
2019-05-21T00:34:05.668Z,8.03
2019-05-21T00:36:53.425Z,4.70
2019-05-21T00:39:39.292Z,4.00
2019-05-21T00:42:06.241Z,3.53
2019-05-21T00:44:35.229Z,8.13
2019-05-21T00:47:03.190Z,4.67
2019-05-21T00:49:30.486Z,5.43
2019-05-21T00:52:07.162Z,3.40
2019-05-21T00:54:26.883Z,5.83
2019-05-21T00:56:54.530Z,6.50
2019-05-21T00:59:21.838Z,4.07
2019-05-21T01:01:49.353Z,4.20
2019-05-21T01:04:16.756Z,6.03
2019-05-21T01:06:44.123Z,5.67
2019-05-21T01:09:11.425Z,4.30
2019-05-21T01:11:38.776Z,5.17
2019-05-21T01:14:06.433Z,4.83
2019-05-21T01:16:33.743Z,7.03
2019-05-21T01:19:01.134Z,4.87
2019-05-21T01:21:28.593Z,5.10
2019-05-21T01:23:56.078Z,5.03
2019-05-21T01:26:23.714Z,4.37
2019-05-21T01:28:51.146Z,6.97
2019-05-21T01:31:18.584Z,5.37
2019-05-21T01:33:45.881Z,6.90
2019-05-21T01:36:13.200Z,10.57
2019-05-21T01:38:40.537Z,6.30
2019-05-21T01:41:07.861Z,5.60
2019-05-21T01:43:35.209Z,8.83
2019-05-21T01:46:02.621Z,5.03
2019-05-21T01:48:29.953Z,7.47
2019-05-21T01:50:57.475Z,7.23
2019-05-21T01:53:24.783Z,8.23
2019-05-21T01:55:52.195Z,6.30
2019-05-21T01:58:19.584Z,8.57
2019-05-21T02:00:46.893Z,7.37
2019-05-21T02:03:15.902Z,5.97
2019-05-21T02:05:43.283Z,5.60
2019-05-21T02:08:10.646Z,5.83
2019-05-21T02:10:37.925Z,5.23
2019-05-21T02:13:05.278Z,6.13
2019-05-21T02:15:32.599Z,6.47
2019-05-21T02:18:00.180Z,6.57
2019-05-21T02:20:27.457Z,6.53
2019-05-21T02:22:54.875Z,4.17
2019-05-21T02:25:22.304Z,4.80
2019-05-21T02:27:49.691Z,5.13
2019-05-21T02:30:17.010Z,5.93
2019-05-21T02:32:44.340Z,6.27
2019-05-21T02:35:11.654Z,3.57
2019-05-21T02:37:38.999Z,5.87
2019-05-21T02:40:06.323Z,5.77
2019-05-21T02:42:35.462Z,5.80
2019-05-21T02:45:02.769Z,6.27
2019-05-21T02:47:30.123Z,5.50
2019-05-21T02:49:57.438Z,6.60
2019-05-21T02:52:24.781Z,6.97
2019-05-21T02:54:52.202Z,5.10
2019-05-21T02:57:19.709Z,6.17
2019-05-21T02:59:48.743Z,6.53
2019-05-21T03:02:32.530Z,10.13
2019-05-21T03:04:59.879Z,7.03
2019-05-21T03:07:27.269Z,8.93
2019-05-21T03:09:54.630Z,6.13
2019-05-21T03:12:22.026Z,6.40
2019-05-21T03:14:49.336Z,5.63
2019-05-21T03:17:16.728Z,5.77
2019-05-21T03:19:44.033Z,7.90
2019-05-21T03:22:11.844Z,6.17
2019-05-21T03:24:39.156Z,7.07
2019-05-21T03:27:06.587Z,6.30
2019-05-21T03:29:33.942Z,8.07
2019-05-21T03:32:01.246Z,5.70
2019-05-21T03:34:28.662Z,5.70
2019-05-21T03:36:55.976Z,6.53
2019-05-21T03:39:23.442Z,6.07
2019-05-21T03:41:50.758Z,4.43
2019-05-21T03:44:18.203Z,9.67
2019-05-21T03:46:45.541Z,4.90
2019-05-21T03:49:12.954Z,5.20
2019-05-21T03:51:40.372Z,6.10
2019-05-21T03:54:07.726Z,9.33
2019-05-21T03:56:35.089Z,7.90
2019-05-21T03:59:02.511Z,6.73
2019-05-21T04:01:29.832Z,10.13
2019-05-21T04:03:57.247Z,9.10
2019-05-21T04:06:28.744Z,7.23
2019-05-21T04:08:53.666Z,9.20
2019-05-21T04:11:20.996Z,8.40
2019-05-21T04:13:48.439Z,6.77
2019-05-21T04:16:33.764Z,6.40
2019-05-21T04:19:02.804Z,11.77
2019-05-21T04:21:30.220Z,8.27
2019-05-21T04:23:57.565Z,10.70
2019-05-21T04:26:24.886Z,8.97
2019-05-21T04:28:52.239Z,7.90
2019-05-21T04:31:19.692Z,7.20
2019-05-21T04:33:47.117Z,7.23
2019-05-21T04:36:14.541Z,4.70
2019-05-21T04:38:41.973Z,6.50
2019-05-21T04:41:09.727Z,7.57
2019-05-21T04:43:37.101Z,5.83
2019-05-21T04:46:04.456Z,6.23
2019-05-21T04:48:31.800Z,6.60
2019-05-21T04:50:59.193Z,8.23
2019-05-21T04:53:26.518Z,7.23
2019-05-21T04:55:53.827Z,4.37
2019-05-21T04:58:21.161Z,4.07
2019-05-21T05:00:48.541Z,3.30
2019-05-21T05:03:15.953Z,4.37
2019-05-21T05:05:43.296Z,5.67
2019-05-21T05:08:10.917Z,6.00
2019-05-21T05:10:38.346Z,10.90
2019-05-21T05:13:05.664Z,7.50
2019-05-21T05:15:33.016Z,5.50
2019-05-21T05:18:00.331Z,5.77
2019-05-21T05:20:27.656Z,3.53
2019-05-21T05:22:55.212Z,3.40
2019-05-21T05:25:22.584Z,5.33
2019-05-21T05:27:49.910Z,2.30
2019-05-21T05:30:17.816Z,2.70
2019-05-21T05:32:45.131Z,4.37
2019-05-21T05:35:14.601Z,7.30
2019-05-21T05:37:45.137Z,3.77
2019-05-21T05:40:10.670Z,4.83
2019-05-21T05:42:38.018Z,4.60
2019-05-21T05:45:06.650Z,6.00
2019-05-21T05:47:34.061Z,6.17
2019-05-21T05:50:03.133Z,3.83
2019-05-21T05:52:30.517Z,7.57
2019-05-21T05:54:57.839Z,3.07
2019-05-21T05:57:25.238Z,6.67
2019-05-21T05:59:52.553Z,8.03
2019-05-21T06:02:19.904Z,5.57
2019-05-21T06:04:47.256Z,6.43
2019-05-21T06:07:14.868Z,3.80
2019-05-21T06:09:42.285Z,8.17
2019-05-21T06:12:09.674Z,9.27
2019-05-21T06:14:37.029Z,5.03
2019-05-21T06:17:04.437Z,8.03
2019-05-21T06:19:31.867Z,7.47
2019-05-21T06:21:59.175Z,6.70
2019-05-21T06:24:26.512Z,4.23
2019-05-21T06:26:53.830Z,8.17
2019-05-21T06:29:21.158Z,5.90
2019-05-21T06:31:48.606Z,5.17
2019-05-21T06:34:16.371Z,6.27
2019-05-21T06:36:43.798Z,6.53
2019-05-21T06:39:11.107Z,8.20
2019-05-21T06:41:38.478Z,9.17
2019-05-21T06:44:05.961Z,9.30
2019-05-21T06:46:33.364Z,9.47
2019-05-21T06:49:01.122Z,12.33
2019-05-21T06:51:28.473Z,10.80
2019-05-21T06:53:55.843Z,19.03
2019-05-21T06:56:23.163Z,13.73
2019-05-21T06:58:50.503Z,13.00
2019-05-21T07:01:18.231Z,9.40
2019-05-21T07:03:45.769Z,10.93
2019-05-21T07:06:13.048Z,9.07
2019-05-21T07:08:40.403Z,9.57
2019-05-21T07:11:07.698Z,10.03
2019-05-21T07:13:35.195Z,5.70
2019-05-21T07:16:02.580Z,11.17
2019-05-21T07:18:29.905Z,7.87
2019-05-21T07:20:57.247Z,4.13
2019-05-21T07:23:24.617Z,4.37
2019-05-21T07:25:51.985Z,5.27
2019-05-21T07:28:19.595Z,6.93
2019-05-21T07:30:47.010Z,4.73
2019-05-21T07:33:14.473Z,2.90
2019-05-21T07:35:41.839Z,5.10
2019-05-21T07:38:09.260Z,1.87
2019-05-21T07:40:36.656Z,4.40
2019-05-21T07:43:04.069Z,2.10
2019-05-21T07:45:31.614Z,2.07
2019-05-21T07:47:58.943Z,2.10
2019-05-21T07:50:26.365Z,1.10
2019-05-21T07:52:53.707Z,1.83
2019-05-21T07:55:21.545Z,2.50
2019-05-21T07:57:49.027Z,2.27
2019-05-21T08:00:16.519Z,2.70
2019-05-21T08:02:43.935Z,1.07
2019-05-21T08:05:11.258Z,2.57
2019-05-21T08:07:38.610Z,1.77
2019-05-21T08:10:08.750Z,2.43
2019-05-21T08:12:39.374Z,1.63
2019-05-21T08:15:07.863Z,1.83
2019-05-21T08:17:35.209Z,1.67
2019-05-21T08:20:09.167Z,0.90
2019-05-21T08:22:31.505Z,0.53
2019-05-21T08:24:58.899Z,1.00
2019-05-21T08:27:26.207Z,1.67
2019-05-21T08:29:53.552Z,4.83
2019-05-21T08:32:20.952Z,0.90
2019-05-21T08:34:48.298Z,1.70
2019-05-21T08:37:15.620Z,1.33
2019-05-21T08:39:43.863Z,2.20
2019-05-21T08:42:11.307Z,1.73
2019-05-21T08:44:39.176Z,1.50
2019-05-21T08:47:06.505Z,4.20
2019-05-21T08:49:33.857Z,1.33
2019-05-21T08:52:01.153Z,2.07
2019-05-21T08:54:46.789Z,0.97
2019-05-21T08:57:14.287Z,1.00
2019-05-21T08:59:41.705Z,2.43
2019-05-21T09:02:09.052Z,0.90
2019-05-21T09:04:45.806Z,4.20
2019-05-21T09:07:05.452Z,0.83
2019-05-21T09:09:48.605Z,1.00
2019-05-21T09:12:01.840Z,1.30
2019-05-21T09:14:29.457Z,0.93
2019-05-21T09:16:56.831Z,1.63
2019-05-21T09:19:24.212Z,0.90
2019-05-21T09:21:51.680Z,1.57
2019-05-21T09:24:19.035Z,0.90
2019-05-21T09:26:46.335Z,0.80
2019-05-21T09:29:23.933Z,1.23
2019-05-21T09:31:42.633Z,2.50
2019-05-21T09:34:10.050Z,2.97
2019-05-21T09:36:37.394Z,2.10
2019-05-21T09:39:05.987Z,1.80
2019-05-21T09:41:33.361Z,2.30
2019-05-21T09:44:00.758Z,1.50
2019-05-21T09:46:28.090Z,0.70
2019-05-21T09:48:56.179Z,1.00
2019-05-21T09:51:23.724Z,0.72
2019-05-21T09:53:51.150Z,1.60
2019-05-21T09:56:34.901Z,2.13
2019-05-21T09:59:04.736Z,1.27
2019-05-21T10:01:33.794Z,1.45
2019-05-21T10:04:01.149Z,1.80
2019-05-21T10:06:28.551Z,1.93
2019-05-21T10:08:55.962Z,2.00
2019-05-21T10:11:23.344Z,1.20
2019-05-21T10:13:50.693Z,2.03
2019-05-21T10:16:18.020Z,1.40
2019-05-21T10:18:45.507Z,1.02
2019-05-21T10:21:12.802Z,1.10
2019-05-21T10:23:40.154Z,1.62
2019-05-21T10:26:07.503Z,1.15
2019-05-21T10:28:34.914Z,1.57
2019-05-21T10:31:02.349Z,2.58
2019-05-21T10:33:29.696Z,1.50
2019-05-21T10:35:57.016Z,1.75
2019-05-21T10:38:24.436Z,1.95
2019-05-21T10:40:51.780Z,1.10
2019-05-21T10:43:19.130Z,0.78
2019-05-21T10:45:46.439Z,1.00
2019-05-21T10:48:13.893Z,1.10
2019-05-21T10:50:41.358Z,1.25
2019-05-21T10:53:08.764Z,1.05
2019-05-21T10:55:36.092Z,2.22
2019-05-21T10:58:03.545Z,2.90
2019-05-21T11:00:31.039Z,4.03
2019-05-21T11:03:05.845Z,0.70
2019-05-21T11:05:37.871Z,2.02
2019-05-21T11:08:22.806Z,1.80
2019-05-21T11:10:34.843Z,4.85
2019-05-21T11:13:02.434Z,1.37
2019-05-21T11:15:29.871Z,2.75
2019-05-21T11:18:09.773Z,2.70
2019-05-21T11:20:26.161Z,0.80
2019-05-21T11:22:53.569Z,1.40
2019-05-21T11:25:20.967Z,3.25
2019-05-21T11:27:48.258Z,0.80
2019-05-21T11:30:15.958Z,1.27
2019-05-21T11:32:43.296Z,1.62
2019-05-21T11:35:10.628Z,3.83
2019-05-21T11:37:38.426Z,1.25
2019-05-21T11:40:08.457Z,0.98
2019-05-21T11:42:34.897Z,0.80
2019-05-21T11:45:02.245Z,0.93
2019-05-21T11:47:29.570Z,1.15
2019-05-21T11:49:56.908Z,1.25
2019-05-21T11:52:24.231Z,1.77
2019-05-21T11:54:51.564Z,1.37
2019-05-21T11:57:18.981Z,1.10
2019-05-21T11:59:46.331Z,1.72
2019-05-21T12:02:13.761Z,0.93
2019-05-21T12:04:41.463Z,4.42
2019-05-21T12:07:08.859Z,2.90
2019-05-21T12:09:36.175Z,0.82
2019-05-21T12:12:03.504Z,0.78
2019-05-21T12:14:30.887Z,2.25
2019-05-21T12:16:58.565Z,2.05
2019-05-21T12:19:25.921Z,0.90
2019-05-21T12:21:53.248Z,2.58
2019-05-21T12:24:20.617Z,0.90
2019-05-21T12:26:48.033Z,1.40
2019-05-21T12:29:15.437Z,2.17
2019-05-21T12:31:42.976Z,2.52
2019-05-21T12:34:10.410Z,1.05
2019-05-21T12:36:37.801Z,7.12
2019-05-21T12:39:14.089Z,0.90
2019-05-21T12:41:35.176Z,2.70
2019-05-21T12:44:02.473Z,2.90
2019-05-21T12:46:29.861Z,3.42
2019-05-21T12:48:57.196Z,3.92
2019-05-21T12:51:24.545Z,2.37
2019-05-21T12:53:51.967Z,2.92
2019-05-21T12:56:19.284Z,1.82
2019-05-21T12:58:46.677Z,1.65
2019-05-21T13:01:14.009Z,2.05
2019-05-21T13:03:41.331Z,3.22
2019-05-21T13:06:08.768Z,2.55
2019-05-21T13:08:36.113Z,1.85
2019-05-21T13:11:03.507Z,4.35
2019-05-21T13:13:30.899Z,4.83
2019-05-21T13:15:58.247Z,3.75
2019-05-21T13:18:25.566Z,3.62
2019-05-21T13:20:52.986Z,2.22
2019-05-21T13:23:20.318Z,2.52
2019-05-21T13:25:47.901Z,2.90
2019-05-21T13:28:15.283Z,5.65
2019-05-21T13:30:42.723Z,3.52
2019-05-21T13:33:10.065Z,3.15
2019-05-21T13:35:37.473Z,3.80
2019-05-21T13:38:04.809Z,2.22
2019-05-21T13:40:32.416Z,3.62
2019-05-21T13:42:59.724Z,4.72
2019-05-21T13:45:27.127Z,1.47
2019-05-21T13:47:54.640Z,4.97
2019-05-21T13:50:21.974Z,1.87
2019-05-21T13:52:49.312Z,3.37
2019-05-21T13:55:16.727Z,5.05
2019-05-21T13:57:44.043Z,1.37
2019-05-21T14:00:13.074Z,4.60
2019-05-21T14:02:40.386Z,8.38
2019-05-21T14:05:07.736Z,4.10
2019-05-21T14:07:35.060Z,3.67
2019-05-21T14:10:14.229Z,4.53
2019-05-21T14:12:31.447Z,1.90
2019-05-21T14:14:58.897Z,3.83
2019-05-21T14:17:26.201Z,2.95
2019-05-21T14:19:53.551Z,3.67
2019-05-21T14:22:20.880Z,3.50
2019-05-21T14:24:48.359Z,3.52
2019-05-21T14:27:15.670Z,4.00
2019-05-21T14:29:43.032Z,3.42
2019-05-21T14:32:10.397Z,1.62
2019-05-21T14:34:37.749Z,1.72
2019-05-21T14:37:05.108Z,3.62
2019-05-21T14:39:32.436Z,1.85
2019-05-21T14:41:59.771Z,3.52
2019-05-21T14:44:27.452Z,1.82
2019-05-21T14:46:54.768Z,2.95
2019-05-21T14:49:22.144Z,3.42
2019-05-21T14:51:49.480Z,3.40
2019-05-21T14:54:26.360Z,1.40
2019-05-21T14:56:47.674Z,3.12
2019-05-21T14:59:14.911Z,1.42
2019-05-21T15:01:42.242Z,2.87
2019-05-21T15:04:09.816Z,2.05
2019-05-21T15:06:37.166Z,1.10
2019-05-21T15:09:04.978Z,1.85
2019-05-21T15:11:32.318Z,0.85
2019-05-21T15:13:59.728Z,3.02
2019-05-21T15:16:27.132Z,2.35
2019-05-21T15:18:54.829Z,1.12
2019-05-21T15:21:23.808Z,1.30
2019-05-21T15:23:51.509Z,2.15
2019-05-21T15:26:18.922Z,3.52
2019-05-21T15:28:46.282Z,2.50
2019-05-21T15:31:13.594Z,3.65
2019-05-21T15:33:40.903Z,3.58
2019-05-21T15:36:08.265Z,3.00
2019-05-21T15:38:49.374Z,3.40
2019-05-21T15:41:10.270Z,2.02
2019-05-21T15:43:33.580Z,3.70
2019-05-21T15:46:01.237Z,2.20
2019-05-21T15:48:28.632Z,3.50
2019-05-21T15:50:56.454Z,2.55
2019-05-21T15:53:23.781Z,2.40
2019-05-21T15:55:51.124Z,3.65
2019-05-21T15:58:18.573Z,2.42
2019-05-21T16:00:45.981Z,2.95
2019-05-21T16:03:13.314Z,2.12
2019-05-21T16:05:40.659Z,2.62
2019-05-21T16:08:07.979Z,3.87
2019-05-21T16:10:35.387Z,2.30
2019-05-21T16:13:02.711Z,2.45
2019-05-21T16:15:30.089Z,2.37
2019-05-21T16:17:57.592Z,2.10
2019-05-21T16:20:25.176Z,3.65
2019-05-21T16:22:52.498Z,2.17
2019-05-21T16:25:19.879Z,2.62
2019-05-21T16:27:47.299Z,2.47
2019-05-21T16:30:14.627Z,2.00
2019-05-21T16:32:42.042Z,4.47
2019-05-21T16:35:09.778Z,5.40
2019-05-21T16:37:37.167Z,5.72
2019-05-21T16:40:06.147Z,5.70
2019-05-21T16:42:33.457Z,2.65
2019-05-21T16:45:01.264Z,2.47
2019-05-21T16:47:43.852Z,3.60
2019-05-21T16:49:57.566Z,2.12
2019-05-21T16:52:24.967Z,2.60
2019-05-21T16:54:52.308Z,4.62
2019-05-21T16:57:19.643Z,5.65
2019-05-21T16:59:46.963Z,4.10
2019-05-21T17:02:14.307Z,2.90
2019-05-21T17:04:41.688Z,4.08
2019-05-21T17:07:09.035Z,4.33
2019-05-21T17:09:36.348Z,3.37
2019-05-21T17:12:04.212Z,2.25
2019-05-21T17:14:31.585Z,3.30
2019-05-21T17:16:58.884Z,5.55
2019-05-21T17:19:26.234Z,5.00
2019-05-21T17:21:53.517Z,3.98
2019-05-21T17:24:20.850Z,5.53
2019-05-21T17:26:48.179Z,6.42
2019-05-21T17:29:15.518Z,5.00
2019-05-21T17:31:42.903Z,3.55
2019-05-21T17:34:10.301Z,5.90
2019-05-21T17:36:37.705Z,4.28
2019-05-21T17:39:05.892Z,10.13
2019-05-21T17:41:33.400Z,14.73
2019-05-21T17:44:00.713Z,17.23
2019-05-21T17:46:28.098Z,24.77
2019-05-21T17:48:55.410Z,26.52
2019-05-21T17:51:22.733Z,21.27
2019-05-21T17:53:50.114Z,11.10
2019-05-21T17:56:17.556Z,6.87
2019-05-21T17:58:44.940Z,8.30
2019-05-21T18:01:13.940Z,5.73
2019-05-21T18:03:42.987Z,6.93
2019-05-21T18:06:12.019Z,6.50
2019-05-21T18:08:40.358Z,8.70
2019-05-21T18:11:08.335Z,9.47
2019-05-21T18:13:36.143Z,8.83
2019-05-21T18:16:04.300Z,10.37
2019-05-21T18:18:31.601Z,11.60
2019-05-21T18:20:59.787Z,11.50
2019-05-21T18:23:27.512Z,11.47
2019-05-21T18:25:54.879Z,8.43
2019-05-21T18:28:22.277Z,8.03
2019-05-21T18:30:50.390Z,9.05
2019-05-21T18:33:17.751Z,9.23
2019-05-21T18:35:45.519Z,6.37
2019-05-21T18:38:12.913Z,6.33
2019-05-21T18:40:40.333Z,6.07
2019-05-21T18:43:08.098Z,9.03
2019-05-21T18:45:35.422Z,7.47
2019-05-21T18:48:02.773Z,6.00
2019-05-21T18:50:36.091Z,5.50
2019-05-21T18:52:59.158Z,7.70
2019-05-21T18:55:26.484Z,5.73
2019-05-21T18:57:53.815Z,5.40
2019-05-21T19:00:21.123Z,6.90
2019-05-21T19:02:48.445Z,5.80
2019-05-21T19:05:15.769Z,5.07
2019-05-21T19:07:43.851Z,6.50
2019-05-21T19:10:11.334Z,6.73
2019-05-21T19:12:38.983Z,9.80
2019-05-21T19:15:06.782Z,8.03
2019-05-21T19:17:35.787Z,10.23
2019-05-21T19:20:04.780Z,10.93
2019-05-21T19:22:32.095Z,13.50
2019-05-21T19:24:59.417Z,10.80
2019-05-21T19:27:26.790Z,9.13
2019-05-21T19:29:54.128Z,8.37
2019-05-21T19:32:21.528Z,9.13
2019-05-21T19:34:48.819Z,7.37
2019-05-21T19:37:16.209Z,7.20
2019-05-21T19:39:43.708Z,9.33
2019-05-21T19:42:11.156Z,10.00
2019-05-21T19:44:38.676Z,7.50
2019-05-21T19:47:06.058Z,10.20
2019-05-21T19:49:33.404Z,7.47
2019-05-21T19:52:00.780Z,7.97
2019-05-21T19:54:28.081Z,8.43
2019-05-21T19:56:55.426Z,10.30
2019-05-21T19:59:22.910Z,9.27
2019-05-21T20:01:50.232Z,10.57
2019-05-21T20:04:19.881Z,9.60
2019-05-21T20:06:47.232Z,10.30
2019-05-21T20:09:17.497Z,8.60
2019-05-21T20:11:44.916Z,7.57
2019-05-21T20:14:12.268Z,8.73
2019-05-21T20:16:39.936Z,9.43
2019-05-21T20:19:07.426Z,8.03
2019-05-21T20:21:34.816Z,9.13
2019-05-21T20:24:02.539Z,8.50
2019-05-21T20:26:31.496Z,8.00
2019-05-21T20:28:59.375Z,8.50
2019-05-21T20:31:26.729Z,8.57
2019-05-21T20:33:54.500Z,7.70
2019-05-21T20:36:21.840Z,8.33
2019-05-21T20:38:49.137Z,7.70
2019-05-21T20:41:17.778Z,7.93
2019-05-21T20:43:58.148Z,8.63
2019-05-21T20:46:15.512Z,7.53
2019-05-21T20:48:43.409Z,7.73
2019-05-21T20:51:10.899Z,8.77
2019-05-21T20:53:38.512Z,7.93
2019-05-21T20:56:07.096Z,9.83
2019-05-21T20:58:34.499Z,8.37
2019-05-21T21:01:02.295Z,7.87
2019-05-21T21:03:30.547Z,7.93
2019-05-21T21:05:58.028Z,7.67
2019-05-21T21:08:27.815Z,8.17
2019-05-21T21:10:55.379Z,8.33
2019-05-21T21:13:22.704Z,8.33
2019-05-21T21:15:50.392Z,8.63
2019-05-21T21:18:17.794Z,8.90
2019-05-21T21:20:45.174Z,9.57
2019-05-21T21:23:14.137Z,9.10
2019-05-21T21:25:41.466Z,10.33
2019-05-21T21:28:09.220Z,10.93
2019-05-21T21:30:37.294Z,10.97
2019-05-21T21:33:05.292Z,10.17
2019-05-21T21:35:32.712Z,11.33
2019-05-21T21:38:01.839Z,14.83
2019-05-21T21:40:29.219Z,16.47
2019-05-21T21:42:56.893Z,14.97
2019-05-21T21:45:24.212Z,17.67
2019-05-21T21:47:52.339Z,17.93
2019-05-21T21:50:19.857Z,15.43
2019-05-21T21:52:47.360Z,17.47
2019-05-21T21:55:14.880Z,15.13
2019-05-21T21:57:42.378Z,18.83
2019-05-21T22:00:26.600Z,16.70
2019-05-21T22:02:54.028Z,17.17
2019-05-21T22:05:21.353Z,17.53
2019-05-21T22:07:48.755Z,19.13
2019-05-21T22:10:16.170Z,17.97
2019-05-21T22:12:43.525Z,17.37
2019-05-21T22:15:11.694Z,15.97
2019-05-21T22:17:39.211Z,18.60
2019-05-21T22:20:07.640Z,17.83
2019-05-21T22:22:35.026Z,16.67
2019-05-21T22:25:02.699Z,14.07
2019-05-21T22:27:30.118Z,14.50
2019-05-21T22:29:57.533Z,13.13
2019-05-21T22:32:25.527Z,12.77
2019-05-21T22:34:52.876Z,12.90
2019-05-21T22:37:21.927Z,11.97
2019-05-21T22:39:49.398Z,11.20
2019-05-21T22:42:16.844Z,11.07
2019-05-21T22:44:44.611Z,13.53
2019-05-21T22:47:12.406Z,11.83
2019-05-21T22:49:39.767Z,11.30
2019-05-21T22:52:07.087Z,11.87
2019-05-21T22:54:34.430Z,10.97
2019-05-21T22:57:01.823Z,10.70
2019-05-21T22:59:29.195Z,10.63
2019-05-21T23:01:58.521Z,11.93
2019-05-21T23:04:26.255Z,11.40
2019-05-21T23:06:53.545Z,13.30
2019-05-21T23:09:20.912Z,11.60
2019-05-21T23:11:48.291Z,12.27
2019-05-21T23:14:15.571Z,11.37
2019-05-21T23:16:43.187Z,12.23
2019-05-21T23:19:11.645Z,11.90
2019-05-21T23:21:39.855Z,14.00
2019-05-21T23:24:08.831Z,10.83
2019-05-21T23:26:36.348Z,12.20
2019-05-21T23:29:04.041Z,11.17
2019-05-21T23:31:31.449Z,10.63
2019-05-21T23:34:00.282Z,13.37
2019-05-21T23:36:27.908Z,11.47
2019-05-21T23:38:56.111Z,11.87
2019-05-21T23:41:26.405Z,11.63
2019-05-21T23:43:53.783Z,12.40
2019-05-21T23:46:21.177Z,11.83
2019-05-21T23:48:48.888Z,11.13
2019-05-21T23:51:16.281Z,13.10
2019-05-21T23:53:43.799Z,12.83
2019-05-21T23:56:11.166Z,11.47
2019-05-21T23:58:38.750Z,13.30
